createdAt,value
2023-03-28T08:16:53.102Z,98358.31
2023-03-28T08:19:25.335Z,98371.19
2023-03-28T08:22:04.734Z,98374.34
2023-03-28T08:24:35.959Z,98346.28
2023-03-28T08:27:12.755Z,98345.47
2023-03-28T08:30:02.321Z,98370.63
2023-03-28T08:32:48.717Z,98361.25
2023-03-28T08:35:20.145Z,98382.66
2023-03-28T08:37:53.883Z,98390.44
2023-03-28T08:40:27.388Z,98367.50
2023-03-28T08:43:50.018Z,98368.03
2023-03-28T08:46:26.332Z,98391.69
2023-03-28T08:48:58.786Z,98380.88
2023-03-28T08:51:29.525Z,98378.03
2023-03-28T08:54:14.513Z,98369.13
2023-03-28T08:56:49.396Z,98364.28
2023-03-28T08:59:25.372Z,98381.56
2023-03-28T09:02:08.071Z,98374.22
2023-03-28T09:07:44.925Z,98395.06
2023-03-28T09:10:22.937Z,98394.59
2023-03-28T09:13:06.300Z,98403.53
2023-03-28T09:15:49.626Z,98396.50
2023-03-28T09:18:44.088Z,98402.63
2023-03-28T09:21:20.760Z,98405.59
2023-03-28T09:24:07.071Z,98408.66
2023-03-28T09:26:38.142Z,98403.66
2023-03-28T09:29:11.374Z,98394.03
2023-03-28T09:31:43.964Z,98380.88
2023-03-28T09:34:18.724Z,98400.06
2023-03-28T09:39:35.313Z,98386.16
2023-03-28T09:42:09.969Z,98375.63
2023-03-28T09:44:54.381Z,98395.88
2023-03-28T09:47:25.876Z,98382.59
2023-03-28T09:50:05.594Z,98400.41
2023-03-28T09:52:43.702Z,98423.69
2023-03-28T09:55:19.718Z,98411.94
2023-03-28T09:58:05.261Z,98411.75
2023-03-28T10:00:38.222Z,98398.59
2023-03-28T10:03:14.419Z,98344.00
2023-03-28T10:05:48.797Z,98387.50
2023-03-28T10:08:29.949Z,98381.28
2023-03-28T10:11:02.645Z,98371.84
2023-03-28T10:13:40.291Z,98394.50
2023-03-28T10:16:11.953Z,98386.94
2023-03-28T10:18:43.284Z,98395.28
2023-03-28T10:21:18.226Z,98376.91
2023-03-28T10:23:56.268Z,98382.91
2023-03-28T10:26:27.786Z,98416.53
2023-03-28T10:29:04.342Z,98430.63
2023-03-28T10:31:35.697Z,98441.84
2023-03-28T10:34:05.409Z,98467.56
2023-03-28T10:36:37.837Z,98418.53
2023-03-28T10:39:24.018Z,98404.91
2023-03-28T10:41:57.301Z,98426.47
2023-03-28T10:44:32.323Z,98413.13
2023-03-28T10:47:04.803Z,98417.38
2023-03-28T10:49:45.167Z,98400.69
2023-03-28T10:52:25.440Z,98416.41
2023-03-28T10:55:07.887Z,98399.41
2023-03-28T10:57:42.841Z,98414.81
2023-03-28T11:00:19.948Z,98387.19
2023-03-28T11:03:08.471Z,98418.53
2023-03-28T11:05:55.066Z,98433.97
2023-03-28T11:08:46.377Z,98475.50
2023-03-28T11:11:37.334Z,98454.91
2023-03-28T11:14:21.367Z,98437.72
2023-03-28T11:17:00.627Z,98448.03
2023-03-28T11:19:56.596Z,98433.84
2023-03-28T11:22:38.018Z,98433.94
2023-03-28T11:25:21.063Z,98422.59
2023-03-28T11:28:01.004Z,98427.84
2023-03-28T11:30:33.861Z,98446.25
2023-03-28T11:33:11.941Z,98441.47
2023-03-28T11:35:46.038Z,98445.34
2023-03-28T11:38:22.808Z,98432.66
2023-03-28T11:40:55.901Z,98426.59
2023-03-28T11:43:34.544Z,98410.75
2023-03-28T11:46:10.339Z,98416.59
2023-03-28T11:48:48.920Z,98414.84
2023-03-28T11:51:21.322Z,98416.66
2023-03-28T11:53:55.701Z,98425.25
2023-03-28T11:56:31.896Z,98435.16
2023-03-28T11:59:06.919Z,98434.38
2023-03-28T12:01:41.104Z,98410.88
2023-03-28T12:04:16.651Z,98407.81
2023-03-28T12:07:02.190Z,98390.66
2023-03-28T12:09:38.636Z,98395.16
2023-03-28T12:12:14.291Z,98406.22
2023-03-28T12:14:55.379Z,98415.91
2023-03-28T12:17:28.673Z,98403.31
2023-03-28T12:19:57.981Z,98422.41
2023-03-28T12:22:34.751Z,98439.28
2023-03-28T12:25:09.758Z,98424.22
2023-03-28T12:27:57.260Z,98421.91
